Time;durP1;ratioP1;P1;durP2;ratioP2;P2;SDS_P1;SDS_P2;PMS_P1;PMS_P2;Temp;Humidity;BMP_temperature;BMP_pressure;BME280_temperature;BME280_humidity;BME280_pressure;Samples;Min_cycle;Max_cycle;Signal;HPM_P1;HPM_P2
2023/10/19 00:03:02;;;;;;;;;20.20;19.00;;;;;13.25;43.53;98947.34;5104055;27;13514;-82
2023/10/19 00:05:32;;;;;;;;;20.20;19.80;;;;;13.51;42.93;98933.06;5102542;28;8835;-82
2023/10/19 00:08:05;;;;;;;;;23.60;21.60;;;;;13.62;42.56;98925.53;5087235;28;8860;-81
2023/10/19 00:10:35;;;;;;;;;22.60;22.60;;;;;13.72;42.39;98931.25;5096329;28;8834;-82
2023/10/19 00:13:05;;;;;;;;;23.40;22.00;;;;;13.87;41.88;98924.47;5088483;28;8850;-81
2023/10/19 00:15:39;;;;;;;;;20.60;20.60;;;;;13.98;41.67;98918.69;5086439;28;8839;-82
2023/10/19 00:20:59;;;;;;;;;20.00;19.60;;;;;14.12;41.39;98902.22;5008280;28;8885;-82
2023/10/19 00:23:31;;;;;;;;;22.80;19.00;;;;;14.16;41.47;98906.44;5013315;28;8952;-83
2023/10/19 00:26:08;;;;;;;;;23.60;21.80;;;;;14.19;41.00;98899.22;5015338;28;8856;-82
2023/10/19 00:28:40;;;;;;;;;17.60;17.20;;;;;14.21;41.19;98891.22;5035395;28;8944;-82
2023/10/19 00:31:11;;;;;;;;;19.40;19.00;;;;;14.17;40.98;98894.91;5008138;28;8846;-80
2023/10/19 00:33:41;;;;;;;;;18.40;15.80;;;;;14.18;41.03;98886.94;5025409;28;8956;-81
2023/10/19 00:36:13;;;;;;;;;15.40;14.60;;;;;14.18;40.97;98884.28;5008321;28;8889;-82
2023/10/19 00:38:50;;;;;;;;;23.20;22.40;;;;;14.06;41.16;98872.50;5024414;28;8856;-79
2023/10/19 00:41:24;;;;;;;;;21.20;20.60;;;;;14.10;41.21;98878.50;5007078;28;8865;-84
2023/10/19 00:43:57;;;;;;;;;20.00;17.00;;;;;13.93;41.52;98881.06;5010818;28;8983;-80
2023/10/19 00:46:32;;;;;;;;;19.00;18.40;;;;;14.06;41.38;98874.28;5004143;28;8876;-81
2023/10/19 00:49:06;;;;;;;;;19.60;19.60;;;;;14.10;41.69;98870.56;5003948;28;9634;-85
2023/10/19 00:51:50;;;;;;;;;22.60;19.00;;;;;14.08;41.98;98875.06;4987979;28;8864;-83
2023/10/19 00:54:26;;;;;;;;;22.60;18.60;;;;;14.06;42.00;98864.56;5016493;28;8888;-82
2023/10/19 00:56:58;;;;;;;;;19.80;19.00;;;;;14.02;42.39;98865.66;5023320;28;8865;-82
2023/10/19 00:59:34;;;;;;;;;23.80;21.60;;;;;13.97;42.09;98866.78;5091305;28;8862;-82
2023/10/19 01:02:17;;;;;;;;;23.40;22.20;;;;;14.01;42.17;98866.56;5084572;28;8882;-81
2023/10/19 01:04:55;;;;;;;;;19.80;19.20;;;;;14.07;42.57;98870.72;5085161;28;8842;-81
2023/10/19 01:07:29;;;;;;;;;19.00;19.00;;;;;13.93;42.75;98874.00;5086440;28;8854;-82
2023/10/19 01:10:00;;;;;;;;;19.00;18.40;;;;;13.91;42.76;98872.34;5081896;28;8858;-82
2023/10/19 01:12:38;;;;;;;;;22.60;21.40;;;;;13.89;42.81;98870.63;5079593;28;9629;-83
2023/10/19 01:15:12;;;;;;;;;21.00;21.00;;;;;13.88;42.70;98868.94;5037091;28;8844;-82
2023/10/19 01:17:45;;;;;;;;;21.20;20.00;;;;;14.03;42.59;98871.78;5037296;28;8859;-82
2023/10/19 01:20:20;;;;;;;;;18.60;18.60;;;;;14.13;42.15;98861.63;5036463;28;8867;-82
2023/10/19 01:23:10;;;;;;;;;21.60;20.40;;;;;14.21;41.94;98857.72;5004487;28;8847;-82
2023/10/19 01:25:49;;;;;;;;;21.60;17.80;;;;;14.28;41.71;98848.56;5036675;28;8855;-78
2023/10/19 01:28:19;;;;;;;;;18.60;18.20;;;;;14.23;41.63;98852.38;5053762;28;8875;-82
2023/10/19 01:30:51;;;;;;;;;17.00;16.80;;;;;14.13;41.62;98849.31;5053261;28;8855;-84
2023/10/19 01:33:23;;;;;;;;;20.60;20.40;;;;;14.15;41.69;98849.22;5053435;28;8828;-85
2023/10/19 01:38:40;;;;;;;;;21.20;20.00;;;;;14.16;41.39;98843.84;5052569;28;9045;-83
2023/10/19 01:41:13;;;;;;;;;17.40;16.20;;;;;14.14;41.48;98843.06;5064889;28;8970;-83
2023/10/19 01:43:43;;;;;;;;;20.00;18.80;;;;;14.14;41.55;98836.94;5059638;28;8882;-81
2023/10/19 01:46:21;;;;;;;;;15.20;14.20;;;;;14.18;41.55;98825.28;5053551;28;8862;-83
2023/10/19 01:48:55;;;;;;;;;20.40;18.60;;;;;14.21;41.39;98826.00;5070969;28;8862;-80
2023/10/19 01:51:24;;;;;;;;;19.40;19.00;;;;;14.29;41.18;98826.47;5073658;28;8854;-81
2023/10/19 01:53:56;;;;;;;;;18.20;18.00;;;;;14.34;41.52;98831.56;5032378;28;8882;-81
2023/10/19 01:56:24;;;;;;;;;15.60;15.60;;;;;14.37;41.08;98827.91;5062873;28;8845;-82
2023/10/19 01:58:58;;;;;;;;;20.00;19.60;;;;;14.41;41.07;98826.81;5066515;28;8857;-82
2023/10/19 02:01:29;;;;;;;;;18.80;17.00;;;;;14.43;41.17;98827.59;5049530;28;8895;-83
2023/10/19 02:04:00;;;;;;;;;24.20;19.80;;;;;14.41;40.97;98817.13;5066457;28;8865;-79
2023/10/19 02:06:35;;;;;;;;;18.40;18.20;;;;;14.44;41.24;98822.25;5063741;28;8881;-82
2023/10/19 02:09:16;;;;;;;;;16.00;15.40;;;;;14.51;41.11;98825.47;5070144;28;8846;-83
2023/10/19 02:11:47;;;;;;;;;21.60;20.40;;;;;14.43;41.10;98823.19;5038055;28;8865;-82
2023/10/19 02:14:19;;;;;;;;;18.00;16.60;;;;;14.51;40.98;98814.00;5041764;28;8862;-80
2023/10/19 02:16:51;;;;;;;;;23.20;21.20;;;;;14.48;41.22;98815.88;5069640;28;8889;-81
2023/10/19 02:19:22;;;;;;;;;20.40;20.20;;;;;14.48;41.18;98815.03;5071532;28;8850;-83
2023/10/19 02:21:52;;;;;;;;;21.80;19.80;;;;;14.43;41.63;98815.25;5085660;28;8854;-83
2023/10/19 02:24:24;;;;;;;;;22.00;18.40;;;;;14.42;41.27;98810.88;5085762;28;8858;-83
2023/10/19 02:26:55;;;;;;;;;17.80;15.80;;;;;14.46;41.36;98811.59;5070694;28;8853;-83
2023/10/19 02:29:26;;;;;;;;;17.00;17.00;;;;;14.48;41.59;98812.38;5069302;28;8831;-83
2023/10/19 02:31:56;;;;;;;;;20.00;18.80;;;;;14.45;41.75;98812.50;5071148;28;8899;-83
2023/10/19 02:34:26;;;;;;;;;17.80;16.40;;;;;14.47;41.98;98810.69;5072809;28;8858;-82
2023/10/19 02:36:54;;;;;;;;;20.00;20.00;;;;;14.47;41.82;98808.03;5073192;28;8854;-81
2023/10/19 02:39:28;;;;;;;;;17.00;17.00;;;;;14.46;41.95;98812.44;5071910;28;8985;-81
2023/10/19 02:42:01;;;;;;;;;16.80;16.40;;;;;14.48;41.85;98812.38;5065992;28;8947;-81
2023/10/19 02:44:30;;;;;;;;;19.00;18.40;;;;;14.47;41.95;98813.31;5049599;28;8930;-81
2023/10/19 02:47:05;;;;;;;;;17.80;17.00;;;;;14.46;41.67;98817.75;5050960;28;8880;-81
2023/10/19 02:49:38;;;;;;;;;18.20;17.80;;;;;14.46;41.77;98823.03;5048437;28;8855;-81
2023/10/19 02:52:07;;;;;;;;;17.60;16.00;;;;;14.34;41.98;98822.75;5033493;28;8852;-81
2023/10/19 02:54:36;;;;;;;;;19.60;17.80;;;;;14.38;41.94;98824.34;5036494;28;8890;-81
2023/10/19 02:57:09;;;;;;;;;17.80;17.80;;;;;14.33;41.94;98829.00;5053059;28;8887;-82
2023/10/19 02:59:38;;;;;;;;;18.60;18.60;;;;;14.39;41.71;98826.88;5056432;28;8872;-82
2023/10/19 03:02:16;;;;;;;;;16.80;15.40;;;;;14.44;41.48;98822.25;5032680;28;8873;-81
2023/10/19 03:05:13;;;;;;;;;14.20;14.20;;;;;14.47;41.59;98822.09;5053843;28;8887;-82
2023/10/19 03:07:44;;;;;;;;;14.60;14.60;;;;;14.43;41.70;98825.84;5067875;28;8887;-81
2023/10/19 03:10:23;;;;;;;;;19.40;18.60;;;;;14.01;43.17;98818.16;5050882;28;8944;-81
2023/10/19 03:12:53;;;;;;;;;21.60;19.60;;;;;14.22;43.09;98817.13;5066757;28;8910;-82
2023/10/19 03:15:22;;;;;;;;;18.80;18.40;;;;;14.35;42.63;98808.63;5035338;28;9598;-82
2023/10/19 03:17:51;;;;;;;;;18.00;18.00;;;;;14.46;42.30;98814.25;5051519;28;8886;-81
2023/10/19 03:20:23;;;;;;;;;21.60;19.80;;;;;14.50;42.36;98804.38;5051418;28;8858;-81
2023/10/19 03:22:52;;;;;;;;;19.00;18.00;;;;;14.52;42.37;98806.00;5050836;28;9711;-82
2023/10/19 03:28:11;;;;;;;;;19.00;18.20;;;;;14.43;43.24;98796.75;5049503;28;8859;-83
2023/10/19 03:30:41;;;;;;;;;21.60;18.00;;;;;14.35;43.11;98796.25;5067469;28;8884;-84
2023/10/19 03:33:11;;;;;;;;;18.40;16.00;;;;;14.34;43.39;98791.91;5066602;28;9041;-82
2023/10/19 03:35:42;;;;;;;;;17.20;16.00;;;;;14.36;43.26;98791.84;5066762;28;8835;-81
2023/10/19 03:38:16;;;;;;;;;19.00;18.80;;;;;14.25;43.61;98784.41;5066662;28;8852;-81
2023/10/19 03:40:51;;;;;;;;;23.00;20.60;;;;;14.27;43.81;98795.78;5066563;28;8868;-80
2023/10/19 03:43:22;;;;;;;;;5.40;5.20;;;;;14.18;44.61;98801.50;5062475;28;8847;-82
2023/10/19 03:45:52;;;;;;;;;17.80;16.00;;;;;14.11;45.23;98806.22;5067898;28;8838;-80
2023/10/19 03:48:26;;;;;;;;;27.60;23.80;;;;;14.04;45.48;98805.66;5066490;28;8842;-80
2023/10/19 03:50:56;;;;;;;;;28.00;25.60;;;;;13.91;45.67;98798.38;5067790;28;8892;-81
2023/10/19 03:53:25;;;;;;;;;20.40;20.40;;;;;13.84;46.08;98803.09;5052165;28;8853;-81
2023/10/19 03:55:56;;;;;;;;;22.20;21.80;;;;;13.87;46.29;98798.50;5069413;28;8854;-82
2023/10/19 03:58:28;;;;;;;;;21.40;20.40;;;;;13.83;46.27;98794.31;5051999;28;8893;-81
2023/10/19 04:01:04;;;;;;;;;20.80;18.80;;;;;13.82;46.35;98789.09;5050941;28;8862;-82
2023/10/19 04:03:36;;;;;;;;;13.00;11.60;;;;;13.64;46.74;98791.63;5062945;28;8872;-82
2023/10/19 04:06:06;;;;;;;;;19.20;19.20;;;;;13.60;46.78;98778.63;5048147;28;8855;-82
2023/10/19 04:08:37;;;;;;;;;32.60;28.00;;;;;13.52;46.98;98776.31;5051364;28;8857;-80
2023/10/19 04:11:21;;;;;;;;;29.60;28.40;;;;;13.63;46.92;98784.63;5061462;28;8846;-82
2023/10/19 04:13:54;;;;;;;;;19.40;19.40;;;;;13.61;46.87;98775.91;5075250;28;8884;-81
2023/10/19 04:16:23;;;;;;;;;19.20;19.20;;;;;13.57;46.55;98763.78;5072226;28;9658;-82
2023/10/19 04:18:54;;;;;;;;;18.20;17.40;;;;;13.49;46.92;98758.00;5072313;28;8877;-81
2023/10/19 04:21:23;;;;;;;;;37.20;33.60;;;;;13.43;46.97;98763.53;5063705;28;8866;-81
2023/10/19 04:23:52;;;;;;;;;16.40;16.40;;;;;13.30;46.93;98753.56;5035869;28;8870;-83
2023/10/19 04:26:24;;;;;;;;;20.00;19.40;;;;;13.33;47.05;98764.88;5070580;28;8852;-79
2023/10/19 04:28:54;;;;;;;;;18.20;16.60;;;;;13.30;47.13;98761.47;5041870;28;8865;-79
2023/10/19 04:31:24;;;;;;;;;22.00;20.80;;;;;13.19;47.33;98761.09;5053040;28;9777;-81
2023/10/19 04:33:54;;;;;;;;;18.80;17.00;;;;;13.15;47.62;98756.00;5020748;28;8857;-82
2023/10/19 04:36:23;;;;;;;;;0.00;0.00;;;;;13.00;48.00;98757.56;5070911;28;8974;-83
2023/10/19 04:38:52;;;;;;;;;18.00;18.00;;;;;12.89;48.32;98753.59;5087251;28;8907;-82
2023/10/19 04:41:23;;;;;;;;;24.60;24.60;;;;;12.84;48.72;98749.41;5086758;28;8876;-83
2023/10/19 04:43:52;;;;;;;;;18.00;16.00;;;;;12.83;48.63;98753.81;5053937;28;8869;-82
2023/10/19 04:46:22;;;;;;;;;16.40;15.80;;;;;12.81;48.40;98757.47;5068184;28;8853;-79
2023/10/19 04:48:51;;;;;;;;;20.00;18.00;;;;;12.82;48.82;98753.88;5053524;28;8968;-80
2023/10/19 04:51:20;;;;;;;;;16.80;16.40;;;;;12.72;49.08;98751.63;5058692;28;8858;-80
2023/10/19 04:53:49;;;;;;;;;18.40;18.40;;;;;12.69;49.30;98751.78;5022511;28;8901;-79
2023/10/19 04:56:21;;;;;;;;;22.80;21.00;;;;;12.71;48.94;98752.56;5036540;28;8854;-80
2023/10/19 04:58:51;;;;;;;;;24.60;24.60;;;;;12.63;49.51;98754.66;5033046;28;8954;-78
2023/10/19 05:01:20;;;;;;;;;19.00;18.80;;;;;12.52;50.28;98754.25;5033398;28;8857;-81
2023/10/19 05:03:49;;;;;;;;;25.80;22.80;;;;;12.55;49.97;98748.84;5040103;28;8892;-81
2023/10/19 05:06:18;;;;;;;;;20.40;18.20;;;;;12.44;50.44;98751.94;5035550;28;9646;-79
2023/10/19 05:08:47;;;;;;;;;18.40;17.20;;;;;12.40;50.54;98752.13;5050814;28;9051;-78
2023/10/19 05:11:20;;;;;;;;;19.80;19.20;;;;;12.50;50.23;98756.97;5036212;28;8896;-80
2023/10/19 05:13:49;;;;;;;;;22.80;19.20;;;;;12.56;50.01;98758.50;4970310;28;9756;-83
2023/10/19 05:16:19;;;;;;;;;21.00;20.40;;;;;12.64;49.89;98755.53;5029599;28;8948;-76
2023/10/19 05:18:48;;;;;;;;;17.40;16.40;;;;;12.58;50.50;98750.50;5027830;28;8883;-73
2023/10/19 05:21:17;;;;;;;;;18.80;15.80;;;;;12.61;50.74;98747.75;5028334;28;8892;-76
2023/10/19 05:23:46;;;;;;;;;22.00;21.00;;;;;12.62;50.87;98749.47;5040500;28;8861;-77
2023/10/19 05:26:15;;;;;;;;;17.20;16.60;;;;;12.51;50.62;98742.00;5060913;28;8858;-77
2023/10/19 05:28:44;;;;;;;;;18.40;17.00;;;;;12.45;51.44;98745.75;5063295;28;8865;-73
2023/10/19 05:31:14;;;;;;;;;17.40;17.20;;;;;12.42;51.45;98745.03;5049482;28;8864;-78
2023/10/19 05:33:44;;;;;;;;;19.60;19.60;;;;;12.40;51.17;98744.22;5063490;28;8866;-77
2023/10/19 05:36:14;;;;;;;;;15.60;15.00;;;;;12.47;50.92;98750.97;5069182;28;8869;-74
2023/10/19 05:38:43;;;;;;;;;19.20;17.40;;;;;12.52;50.73;98739.31;5032543;28;8890;-75
2023/10/19 05:41:12;;;;;;;;;19.80;17.00;;;;;12.53;51.13;98738.38;5067891;28;8867;-75
2023/10/19 05:43:42;;;;;;;;;16.00;14.40;;;;;12.62;51.03;98733.66;5051774;28;8890;-76
2023/10/19 05:46:11;;;;;;;;;20.00;20.00;;;;;12.42;51.69;98729.22;5063829;28;8873;-75
2023/10/19 05:48:40;;;;;;;;;21.00;19.80;;;;;12.46;51.54;98728.16;5065671;28;8842;-74
2023/10/19 05:51:11;;;;;;;;;19.00;18.80;;;;;12.56;50.87;98733.88;5056793;28;8881;-75
2023/10/19 05:53:41;;;;;;;;;17.60;17.20;;;;;12.59;51.46;98733.78;5069691;28;8955;-76
2023/10/19 05:56:10;;;;;;;;;16.00;14.20;;;;;12.71;50.67;98731.47;5069776;28;8893;-74
2023/10/19 05:58:39;;;;;;;;;16.20;15.60;;;;;12.73;51.06;98729.63;5062519;28;8860;-73
2023/10/19 06:01:08;;;;;;;;;17.00;16.20;;;;;12.90;50.87;98723.66;5015555;28;8962;-74
2023/10/19 06:03:38;;;;;;;;;15.60;15.60;;;;;12.94;50.45;98721.75;5060896;28;8866;-73
2023/10/19 06:06:08;;;;;;;;;16.40;16.40;;;;;13.01;50.52;98727.59;5068219;28;8862;-75
2023/10/19 06:08:38;;;;;;;;;19.60;19.00;;;;;13.17;49.97;98726.00;5076301;28;8836;-76
2023/10/19 06:11:07;;;;;;;;;19.20;16.80;;;;;13.33;49.67;98743.78;5069649;28;9628;-76
2023/10/19 06:13:36;;;;;;;;;18.00;17.80;;;;;13.51;49.16;98749.06;5051375;28;8866;-75
2023/10/19 06:16:06;;;;;;;;;18.00;17.60;;;;;13.66;49.38;98752.78;5069167;28;8873;-76
2023/10/19 06:18:35;;;;;;;;;20.40;18.60;;;;;13.67;49.13;98758.94;5031850;28;8842;-76
2023/10/19 06:21:05;;;;;;;;;19.60;17.80;;;;;13.90;48.71;98747.31;5051286;28;9649;-76
2023/10/19 06:23:33;;;;;;;;;21.60;20.40;;;;;14.09;48.55;98750.81;5056295;28;8876;-76
2023/10/19 06:26:12;;;;;;;;;21.80;20.20;;;;;14.34;48.02;98757.53;5034497;28;8874;-76
2023/10/19 06:28:41;;;;;;;;;18.40;17.20;;;;;14.31;47.73;98760.31;5067970;28;8973;-76
2023/10/19 06:31:11;;;;;;;;;18.00;18.00;;;;;14.39;47.33;98763.44;5082624;28;8918;-76
2023/10/19 06:33:41;;;;;;;;;18.60;17.40;;;;;14.52;47.03;98760.19;5068364;28;8872;-75
2023/10/19 06:36:10;;;;;;;;;20.20;19.80;;;;;14.62;47.11;98762.31;5034226;28;8858;-81
2023/10/19 06:38:39;;;;;;;;;18.80;18.80;;;;;14.73;46.90;98760.94;5024579;28;8847;-81
2023/10/19 06:41:14;;;;;;;;;24.80;22.40;;;;;14.90;46.73;98762.72;5043318;28;9546;-79
2023/10/19 06:43:43;;;;;;;;;20.40;18.80;;;;;14.93;46.69;98762.56;5036156;28;8983;-78
2023/10/19 06:46:12;;;;;;;;;24.00;24.00;;;;;14.99;46.66;98759.59;5031068;28;8850;-80
2023/10/19 06:48:42;;;;;;;;;23.80;23.20;;;;;15.06;46.37;98758.34;5012419;28;8875;-78
2023/10/19 06:51:11;;;;;;;;;19.20;19.20;;;;;15.15;46.15;98762.28;4995524;28;8972;-78
2023/10/19 06:53:41;;;;;;;;;11.00;11.00;;;;;15.14;46.44;98764.09;5013264;28;8854;-81
2023/10/19 06:56:10;;;;;;;;;16.40;16.40;;;;;15.19;46.02;98764.72;5012755;28;8866;-80
2023/10/19 06:58:41;;;;;;;;;20.80;18.00;;;;;15.19;45.95;98767.38;5011937;28;8878;-82
2023/10/19 07:01:10;;;;;;;;;19.80;17.60;;;;;15.13;45.95;98769.47;4994589;28;8952;-80
2023/10/19 07:03:41;;;;;;;;;18.80;17.20;;;;;15.23;46.16;98774.22;4999221;28;8878;-79
2023/10/19 07:06:13;;;;;;;;;19.20;19.20;;;;;15.31;46.50;98767.66;5011206;28;8862;-79
2023/10/19 07:08:43;;;;;;;;;19.80;18.60;;;;;15.34;46.48;98738.34;4988900;28;8858;-81
2023/10/19 07:11:12;;;;;;;;;20.80;19.60;;;;;15.23;47.02;98746.88;5052031;28;8843;-79
2023/10/19 07:13:43;;;;;;;;;16.00;15.00;;;;;15.16;47.16;98727.81;5028067;28;8842;-79
2023/10/19 07:16:13;;;;;;;;;19.40;18.60;;;;;15.01;47.73;98734.75;5057690;28;8889;-79
2023/10/19 07:18:42;;;;;;;;;21.00;20.80;;;;;14.97;48.28;98729.72;5046792;28;9756;-81
2023/10/19 07:21:11;;;;;;;;;18.80;18.20;;;;;14.93;48.12;98730.81;5084623;28;8838;-80
2023/10/19 07:23:41;;;;;;;;;20.80;19.20;;;;;14.76;48.64;98727.25;5069485;28;8827;-80
2023/10/19 07:26:11;;;;;;;;;19.80;18.60;;;;;14.77;48.62;98722.81;5068734;28;8931;-82
2023/10/19 07:28:40;;;;;;;;;19.20;17.60;;;;;14.77;48.74;98714.88;5068709;28;8863;-79
2023/10/19 07:31:12;;;;;;;;;21.00;14.80;;;;;14.80;49.15;98718.22;5054159;28;8935;-80
2023/10/19 07:33:45;;;;;;;;;18.20;17.20;;;;;14.90;48.89;98715.09;5072139;28;8842;-79
2023/10/19 07:36:15;;;;;;;;;18.80;17.60;;;;;14.89;48.98;98713.41;5070402;28;8846;-82
2023/10/19 07:38:46;;;;;;;;;18.60;18.20;;;;;14.91;48.96;98711.53;5070374;28;8989;-79
2023/10/19 07:41:15;;;;;;;;;20.00;16.00;;;;;14.82;49.04;98705.75;5056912;28;8839;-81
2023/10/19 07:43:46;;;;;;;;;20.80;20.00;;;;;14.90;49.20;98702.72;5037950;28;8963;-83
2023/10/19 07:46:16;;;;;;;;;21.80;19.40;;;;;15.09;49.21;98707.88;5070771;28;8855;-81
2023/10/19 07:48:45;;;;;;;;;25.20;24.40;;;;;15.10;48.98;98692.88;5073380;28;8842;-82
2023/10/19 07:51:14;;;;;;;;;23.80;22.20;;;;;15.25;48.93;98689.41;5068438;28;8869;-81
2023/10/19 07:53:44;;;;;;;;;19.00;18.60;;;;;15.31;48.55;98693.53;5066531;28;8851;-81
2023/10/19 07:56:13;;;;;;;;;24.40;21.00;;;;;15.43;48.28;98695.47;5066173;28;8916;-76
2023/10/19 07:58:42;;;;;;;;;21.20;20.60;;;;;15.40;48.53;98693.03;5065310;28;8864;-78
2023/10/19 08:01:11;;;;;;;;;24.60;19.00;;;;;15.61;47.98;98691.84;5065078;28;8954;-77
2023/10/19 08:03:42;;;;;;;;;21.20;19.40;;;;;15.83;47.85;98695.94;5049183;28;9660;-78
2023/10/19 08:06:11;;;;;;;;;21.60;20.80;;;;;15.99;47.17;98698.59;5066226;28;8965;-79
2023/10/19 08:08:41;;;;;;;;;21.20;20.40;;;;;16.13;47.14;98681.91;5049203;28;8832;-80
2023/10/19 08:11:10;;;;;;;;;20.20;18.60;;;;;16.32;46.96;98674.59;5065475;28;9644;-79
2023/10/19 08:13:40;;;;;;;;;20.60;19.40;;;;;16.23;46.84;98664.53;5032763;28;8844;-78
2023/10/19 08:16:09;;;;;;;;;17.40;16.00;;;;;16.19;46.72;98660.31;5032156;28;8978;-79
2023/10/19 08:18:42;;;;;;;;;17.40;17.00;;;;;16.30;46.61;98652.59;5018001;28;8812;-79
2023/10/19 08:21:12;;;;;;;;;21.20;20.20;;;;;16.34;46.90;98654.16;5033933;28;8944;-78
2023/10/19 08:23:42;;;;;;;;;17.40;16.20;;;;;16.36;46.45;98654.03;5020187;28;8874;-79
2023/10/19 08:26:10;;;;;;;;;19.40;18.40;;;;;16.42;46.15;98648.38;5064873;28;8873;-79
2023/10/19 08:28:39;;;;;;;;;16.40;14.60;;;;;16.60;46.10;98654.41;5071787;28;9454;-78
2023/10/19 08:31:10;;;;;;;;;19.60;17.80;;;;;16.72;46.17;98660.75;5071840;28;8878;-77
2023/10/19 08:33:41;;;;;;;;;18.80;17.20;;;;;16.77;45.45;98661.34;5053860;28;8843;-79
2023/10/19 08:36:20;;;;;;;;;18.40;18.00;;;;;16.97;45.19;98652.16;5071811;28;8862;-78
2023/10/19 08:38:49;;;;;;;;;18.40;17.80;;;;;16.90;45.14;98657.00;5070536;28;8842;-79
2023/10/19 08:41:18;;;;;;;;;16.20;16.20;;;;;17.01;45.11;98651.03;5071886;28;8862;-78
2023/10/19 08:43:48;;;;;;;;;15.80;15.80;;;;;17.06;44.95;98648.94;5072395;28;8859;-76
2023/10/19 08:46:18;;;;;;;;;16.00;15.60;;;;;17.07;44.84;98641.84;5070481;28;8927;-78
2023/10/19 08:48:47;;;;;;;;;17.60;16.20;;;;;17.16;44.62;98644.75;5072676;28;8969;-80
2023/10/19 08:51:19;;;;;;;;;15.80;15.20;;;;;17.13;44.29;98634.31;5071016;28;8955;-77
2023/10/19 08:53:51;;;;;;;;;15.60;13.20;;;;;17.22;44.19;98629.41;5071665;28;8889;-80
2023/10/19 08:56:23;;;;;;;;;14.40;14.00;;;;;17.25;43.77;98618.56;5070529;28;8877;-80
2023/10/19 08:58:53;;;;;;;;;16.00;16.00;;;;;17.17;44.15;98619.91;5071094;28;8858;-81
2023/10/19 09:01:23;;;;;;;;;14.00;13.80;;;;;17.33;43.82;98629.59;5036654;28;8965;-78
2023/10/19 09:03:53;;;;;;;;;16.00;15.00;;;;;17.51;43.77;98624.91;5071619;28;8866;-79
2023/10/19 09:06:24;;;;;;;;;14.80;14.20;;;;;17.68;43.77;98621.16;5070329;28;8861;-78
2023/10/19 09:08:53;;;;;;;;;15.40;15.40;;;;;17.78;43.54;98611.63;5071242;28;8867;-79
2023/10/19 09:11:24;;;;;;;;;16.60;15.80;;;;;17.79;43.21;98608.00;5053380;28;8866;-77
2023/10/19 09:13:55;;;;;;;;;15.20;13.60;;;;;17.76;43.22;98608.22;5069638;28;8865;-78
2023/10/19 09:16:24;;;;;;;;;14.60;14.00;;;;;17.89;42.90;98603.81;5053528;28;8982;-79
2023/10/19 09:18:53;;;;;;;;;16.00;14.20;;;;;17.75;43.14;98611.84;5071415;28;8862;-79
2023/10/19 09:21:25;;;;;;;;;12.80;11.60;;;;;17.76;43.06;98605.56;5077747;28;8984;-78
2023/10/19 09:23:56;;;;;;;;;10.20;9.00;;;;;17.80;43.25;98606.19;5075161;28;8850;-78
2023/10/19 09:26:25;;;;;;;;;14.60;13.20;;;;;17.87;43.29;98595.09;5072173;28;8892;-79
2023/10/19 09:28:55;;;;;;;;;16.40;16.40;;;;;18.08;42.95;98598.16;5071555;28;8858;-80
2023/10/19 09:31:24;;;;;;;;;13.60;13.00;;;;;18.15;42.63;98594.09;5069542;28;8927;-74
2023/10/19 09:33:55;;;;;;;;;16.00;16.00;;;;;17.92;42.63;98603.59;5036835;28;8870;-76
2023/10/19 09:36:29;;;;;;;;;15.00;15.00;;;;;18.02;42.63;98598.50;5074685;28;8881;-76
2023/10/19 09:38:58;;;;;;;;;18.00;16.20;;;;;18.01;42.46;98590.66;5071424;28;8858;-76
2023/10/19 09:41:29;;;;;;;;;16.20;15.00;;;;;17.97;42.56;98593.50;5056743;28;8850;-79
2023/10/19 09:44:04;;;;;;;;;14.80;13.00;;;;;18.07;42.52;98593.75;5053907;28;8862;-79
2023/10/19 09:46:36;;;;;;;;;16.00;14.80;;;;;18.20;42.04;98587.63;5086584;28;8874;-79
2023/10/19 09:49:06;;;;;;;;;14.40;14.40;;;;;18.26;41.65;98582.72;5073841;28;8842;-78
2023/10/19 09:51:38;;;;;;;;;21.00;19.20;;;;;18.32;41.53;98566.34;5004839;28;8855;-80
2023/10/19 09:54:15;;;;;;;;;16.20;13.60;;;;;18.52;41.62;98553.47;5070955;28;8880;-79
2023/10/19 09:56:52;;;;;;;;;17.80;17.00;;;;;18.77;41.67;98535.78;5050029;28;8862;-79
2023/10/19 09:59:36;;;;;;;;;18.00;16.40;;;;;18.69;41.61;98523.03;5005363;28;8888;-81
2023/10/19 10:02:12;;;;;;;;;17.40;16.60;;;;;18.78;40.83;98519.72;5069401;28;8858;-80
2023/10/19 10:04:45;;;;;;;;;14.60;14.00;;;;;18.79;40.61;98524.09;5070995;28;8851;-77
2023/10/19 10:07:18;;;;;;;;;12.40;12.40;;;;;18.92;40.88;98529.41;5071066;28;8854;-79
2023/10/19 10:10:08;;;;;;;;;12.40;12.40;;;;;18.91;40.77;98541.88;5054938;28;8846;-83
2023/10/19 10:12:38;;;;;;;;;14.00;12.20;;;;;18.97;40.36;98540.56;5070402;28;8858;-79
2023/10/19 10:15:08;;;;;;;;;13.60;12.00;;;;;18.96;40.42;98535.34;5035995;28;8873;-80
2023/10/19 10:17:39;;;;;;;;;11.80;11.20;;;;;19.20;40.42;98541.56;5053141;28;8846;-81
2023/10/19 10:20:30;;;;;;;;;12.40;11.40;;;;;19.34;40.09;98543.22;5052432;28;9749;-76
2023/10/19 10:23:24;;;;;;;;;13.00;13.00;;;;;19.38;39.52;98543.84;4991707;28;8864;-80
2023/10/19 10:25:54;;;;;;;;;8.00;7.00;;;;;19.27;39.38;98552.59;4991818;28;8876;-81
2023/10/19 10:28:27;;;;;;;;;12.40;11.60;;;;;19.42;39.52;98547.97;4944280;28;8856;-78
2023/10/19 10:31:17;;;;;;;;;12.40;11.00;;;;;19.67;39.00;98528.41;5009284;28;8871;-78
2023/10/19 10:33:48;;;;;;;;;14.40;12.60;;;;;19.62;38.98;98527.88;5003921;28;8864;-78
2023/10/19 10:36:18;;;;;;;;;12.40;12.40;;;;;19.81;38.92;98514.84;4993056;28;8871;-80
2023/10/19 10:38:52;;;;;;;;;14.00;13.20;;;;;19.96;38.69;98520.00;4993384;28;9710;-79
2023/10/19 10:41:22;;;;;;;;;13.00;12.40;;;;;20.13;37.90;98508.03;4975299;28;8843;-77
2023/10/19 10:43:53;;;;;;;;;14.40;12.20;;;;;20.22;37.87;98518.00;4990487;28;8883;-79
2023/10/19 10:46:24;;;;;;;;;16.00;16.00;;;;;20.37;37.56;98502.63;5005861;28;9598;-77
2023/10/19 10:48:54;;;;;;;;;12.00;12.00;;;;;20.50;37.66;98484.69;5007271;28;8852;-79
2023/10/19 10:51:24;;;;;;;;;10.40;10.00;;;;;20.65;36.99;98475.47;5006593;28;8879;-81
2023/10/19 10:53:56;;;;;;;;;15.80;15.60;;;;;20.73;36.90;98472.16;5009940;28;8953;-78
2023/10/19 10:56:25;;;;;;;;;14.00;12.00;;;;;20.75;36.98;98461.38;4990810;28;8856;-78
2023/10/19 10:58:55;;;;;;;;;12.40;11.00;;;;;20.88;36.86;98460.25;4990642;28;8874;-80
2023/10/19 11:01:32;;;;;;;;;15.40;14.60;;;;;20.87;36.71;98450.53;5051079;28;8854;-79
2023/10/19 11:04:10;;;;;;;;;17.40;17.40;;;;;21.02;36.83;98443.09;5068897;28;8843;-78
2023/10/19 11:06:50;;;;;;;;;14.00;14.00;;;;;21.06;36.27;98435.69;5050569;28;8912;-79
2023/10/19 11:09:21;;;;;;;;;19.00;15.00;;;;;20.99;36.96;98431.81;5051089;28;8964;-77
2023/10/19 11:11:52;;;;;;;;;17.20;16.80;;;;;21.03;36.40;98426.13;5034188;28;9588;-79
2023/10/19 11:14:24;;;;;;;;;18.00;17.00;;;;;21.16;36.54;98422.41;5068176;28;8857;-79
2023/10/19 11:16:53;;;;;;;;;18.40;17.40;;;;;21.06;36.53;98425.84;5067470;28;8874;-78
2023/10/19 11:19:37;;;;;;;;;20.00;16.60;;;;;20.98;36.68;98425.63;5067881;28;8834;-81
2023/10/19 11:22:11;;;;;;;;;17.60;16.60;;;;;21.05;36.09;98416.16;5071753;28;8865;-79
2023/10/19 11:24:43;;;;;;;;;15.40;14.20;;;;;20.96;36.46;98410.72;5068666;28;8858;-78
2023/10/19 11:27:12;;;;;;;;;14.60;13.60;;;;;21.07;36.29;98413.34;5067645;28;8886;-81
2023/10/19 11:29:55;;;;;;;;;13.20;13.20;;;;;21.41;35.76;98416.72;5067284;28;8822;-75
2023/10/19 11:32:25;;;;;;;;;13.20;13.20;;;;;21.49;35.43;98426.78;5066769;28;8884;-79
2023/10/19 11:34:56;;;;;;;;;16.00;15.40;;;;;21.50;35.63;98430.28;5050610;28;8875;-81
2023/10/19 11:37:25;;;;;;;;;13.60;13.60;;;;;21.42;35.39;98438.97;5051223;28;8859;-80
2023/10/19 11:39:55;;;;;;;;;14.40;13.80;;;;;21.48;35.02;98443.78;5038831;28;8844;-80
2023/10/19 11:42:24;;;;;;;;;9.80;9.80;;;;;21.58;34.83;98442.03;5051759;28;8848;-80
2023/10/19 11:44:54;;;;;;;;;13.80;13.20;;;;;21.36;34.86;98412.75;5034783;28;9009;-82
2023/10/19 11:47:22;;;;;;;;;12.20;12.20;;;;;21.37;35.12;98395.72;5066874;28;8836;-80
2023/10/19 11:49:53;;;;;;;;;13.00;12.60;;;;;21.22;34.92;98403.22;5033268;28;8929;-82
2023/10/19 11:52:23;;;;;;;;;15.80;14.40;;;;;21.16;35.40;98414.41;5033081;28;8855;-82
2023/10/19 11:54:52;;;;;;;;;13.20;11.60;;;;;21.14;35.48;98390.47;5049790;28;9059;-79